Time;durP1;ratioP1;P1;durP2;ratioP2;P2;SDS_P1;SDS_P2;PMS_P1;PMS_P2;Temp;Humidity;BMP_temperature;BMP_pressure;BME280_temperature;BME280_humidity;BME280_pressure;Samples;Min_cycle;Max_cycle;Signal;HPM_P1;HPM_P2
2023/05/04 00:00:26;;;;;;;2.70;1.90;;;;;;;16.05;57.37;102469.67;106408;1275;24236;-50
2023/05/04 00:02:53;;;;;;;2.40;2.00;;;;;;;16.03;57.29;102473.37;106350;1279;24198;-50
2023/05/04 00:05:21;;;;;;;3.70;2.10;;;;;;;16.04;57.29;102467.59;106563;1275;25359;-50
2023/05/04 00:07:48;;;;;;;3.10;1.80;;;;;;;16.03;57.37;102460.27;106497;1274;27115;-50
2023/05/04 00:10:15;;;;;;;2.70;1.90;;;;;;;16.03;57.45;102462.89;106509;1275;25508;-50
2023/05/04 00:12:42;;;;;;;4.30;2.20;;;;;;;16.03;57.44;102463.42;106443;1280;22531;-50
2023/05/04 00:15:09;;;;;;;2.30;1.90;;;;;;;16.02;57.47;102459.74;106474;1278;25345;-50
2023/05/04 00:17:37;;;;;;;3.10;2.00;;;;;;;16.02;57.48;102457.64;106353;1275;25406;-50
2023/05/04 00:20:05;;;;;;;3.70;2.80;;;;;;;16.02;57.55;102456.95;106470;1276;25398;-50
2023/05/04 00:22:33;;;;;;;2.30;2.00;;;;;;;16.02;57.47;102458.00;106324;1277;22537;-50
2023/05/04 00:25:00;;;;;;;2.20;1.90;;;;;;;16.01;57.57;102458.35;106493;1274;25496;-50
2023/05/04 00:27:27;;;;;;;2.20;1.90;;;;;;;16.01;57.50;102452.58;106426;1274;25532;-50
2023/05/04 00:29:55;;;;;;;2.30;1.60;;;;;;;16.02;57.45;102448.90;106571;1279;25416;-50
2023/05/04 00:32:22;;;;;;;3.50;2.10;;;;;;;16.01;57.48;102453.64;106483;1274;26533;-50
2023/05/04 00:34:49;;;;;;;2.70;2.50;;;;;;;15.99;57.46;102453.86;106501;1274;25409;-50
2023/05/04 00:37:17;;;;;;;2.20;1.90;;;;;;;15.98;57.49;102457.55;106452;1274;26504;-50
2023/05/04 00:39:44;;;;;;;2.50;1.80;;;;;;;16.00;57.40;102452.80;106299;1274;26621;-50
2023/05/04 00:42:11;;;;;;;3.30;1.90;;;;;;;16.00;57.39;102446.14;106209;1274;25461;-50
2023/05/04 00:44:40;;;;;;;3.60;2.00;;;;;;;15.94;57.56;102434.69;106284;1274;25521;-50
2023/05/04 00:47:07;;;;;;;3.00;1.80;;;;;;;15.91;57.66;102432.47;106192;1275;25334;-50
2023/05/04 00:49:34;;;;;;;1.90;1.70;;;;;;;15.90;57.71;102435.64;106118;1277;22530;-49
2023/05/04 00:52:02;;;;;;;3.30;2.00;;;;;;;15.90;57.62;102439.14;106237;1274;25506;-50
2023/05/04 00:54:29;;;;;;;3.00;1.70;;;;;;;15.92;57.55;102436.48;106327;1275;26700;-50
2023/05/04 00:56:56;;;;;;;2.10;1.70;;;;;;;15.93;57.44;102434.73;106338;1279;22648;-50
2023/05/04 00:59:23;;;;;;;3.90;2.00;;;;;;;15.93;57.35;102434.35;106369;1274;22533;-49
2023/05/04 01:01:50;;;;;;;2.20;1.70;;;;;;;15.95;57.30;102437.14;106292;1274;25361;-50
2023/05/04 01:04:18;;;;;;;2.20;1.70;;;;;;;15.97;57.11;102442.52;106399;1274;25557;-49
2023/05/04 01:06:59;;;;;;;3.20;2.10;;;;;;;16.00;56.91;102441.77;106404;1277;25451;-50
2023/05/04 01:09:33;;;;;;;;;;;;;;;16.00;56.68;102438.43;105063;1274;1003696;-47
2023/05/04 01:12:11;;;;;;;2.40;2.10;;;;;;;16.01;56.64;102432.98;106434;1275;25390;-49
2023/05/04 01:14:38;;;;;;;2.40;1.80;;;;;;;15.99;56.89;102428.13;106448;1279;22677;-50
2023/05/04 01:17:05;;;;;;;2.20;1.90;;;;;;;15.98;57.25;102425.17;106517;1274;25349;-50
2023/05/04 01:19:33;;;;;;;2.20;2.10;;;;;;;15.96;57.50;102424.67;106564;1275;24255;-50
2023/05/04 01:22:02;;;;;;;2.30;1.90;;;;;;;15.91;57.79;102424.77;106453;1275;25345;-50
2023/05/04 01:24:29;;;;;;;3.10;2.30;;;;;;;15.89;58.16;102425.52;106588;1275;25348;-50
2023/05/04 01:27:08;;;;;;;10.40;4.60;;;;;;;15.87;58.61;102415.73;106387;1275;24218;-50
2023/05/04 01:29:42;;;;;;;4.90;2.60;;;;;;;15.85;59.15;102408.95;106654;1275;25434;-50
2023/05/04 01:32:11;;;;;;;4.40;2.90;;;;;;;15.82;59.73;102399.73;106459;1275;25418;-50
2023/05/04 01:34:38;;;;;;;4.10;3.10;;;;;;;15.81;60.13;102395.89;106466;1275;24213;-50
2023/05/04 01:37:05;;;;;;;8.20;2.70;;;;;;;15.79;60.54;102397.66;106417;1275;23206;-51
2023/05/04 01:39:32;;;;;;;4.80;3.40;;;;;;;15.78;60.97;102397.55;106384;1277;25495;-50
2023/05/04 01:42:01;;;;;;;3.70;3.20;;;;;;;15.76;61.37;102400.18;106642;1275;24233;-50
2023/05/04 01:44:29;;;;;;;4.00;3.00;;;;;;;15.71;61.72;102395.38;106533;1274;22613;-50
2023/05/04 01:46:56;;;;;;;3.20;2.90;;;;;;;15.68;62.06;102390.17;106466;1274;24088;-50
2023/05/04 01:49:23;;;;;;;3.70;2.70;;;;;;;15.67;62.35;102387.91;106472;1275;24272;-50
2023/05/04 01:51:50;;;;;;;4.40;3.20;;;;;;;15.66;62.55;102386.16;106460;1274;25409;-50
2023/05/04 01:54:17;;;;;;;3.60;2.80;;;;;;;15.67;62.73;102385.29;106519;1274;24220;-51
2023/05/04 01:56:44;;;;;;;3.90;2.50;;;;;;;15.68;62.72;102388.59;106260;1275;23865;-50
2023/05/04 01:59:11;;;;;;;2.80;2.60;;;;;;;15.69;62.67;102388.58;106372;1280;25405;-50
2023/05/04 02:01:40;;;;;;;2.50;2.20;;;;;;;15.71;62.50;102390.66;106504;1274;25367;-50
2023/05/04 02:04:07;;;;;;;3.50;2.10;;;;;;;15.72;62.36;102391.33;106524;1275;25482;-50
2023/05/04 02:06:37;;;;;;;2.60;2.40;;;;;;;15.74;61.99;102384.65;106481;1275;25468;-50
2023/05/04 02:09:04;;;;;;;3.80;2.50;;;;;;;15.72;61.65;102387.48;106527;1275;25434;-51
2023/05/04 02:11:32;;;;;;;2.30;2.00;;;;;;;15.71;61.55;102386.45;106447;1275;22542;-50
2023/05/04 02:14:00;;;;;;;2.20;1.90;;;;;;;15.73;61.31;102382.38;106479;1274;25357;-51
2023/05/04 02:16:27;;;;;;;2.40;2.20;;;;;;;15.74;60.92;102376.27;106514;1275;25377;-50
2023/05/04 02:18:54;;;;;;;2.40;2.20;;;;;;;15.77;60.72;102361.15;106544;1274;25406;-50
2023/05/04 02:21:21;;;;;;;5.00;2.30;;;;;;;15.76;60.74;102356.27;106333;1274;25438;-49
2023/05/04 02:23:48;;;;;;;2.60;2.30;;;;;;;15.70;60.94;102354.80;106088;1277;24223;-50
2023/05/04 02:26:16;;;;;;;3.20;2.70;;;;;;;15.66;61.15;102360.64;105945;1278;25239;-50
2023/05/04 02:28:43;;;;;;;3.10;2.80;;;;;;;15.66;61.42;102365.37;105893;1284;25328;-50
2023/05/04 02:31:10;;;;;;;3.30;2.80;;;;;;;15.64;61.75;102373.61;106079;1277;22683;-49
2023/05/04 02:33:37;;;;;;;4.20;3.40;;;;;;;15.67;61.85;102375.67;106189;1278;25489;-50
2023/05/04 02:36:05;;;;;;;3.70;3.40;;;;;;;15.69;62.18;102376.86;105968;1278;25587;-49
2023/05/04 02:38:32;;;;;;;4.00;3.30;;;;;;;15.70;62.35;102376.84;106289;1278;24413;-50
2023/05/04 02:40:58;;;;;;;3.40;3.10;;;;;;;15.73;62.55;102375.56;106053;1280;22673;-50
2023/05/04 02:43:25;;;;;;;3.40;3.10;;;;;;;15.76;62.58;102366.41;106326;1278;22553;-50
2023/05/04 02:45:52;;;;;;;4.20;3.60;;;;;;;15.77;62.59;102363.23;106273;1276;24276;-50
2023/05/04 02:48:19;;;;;;;4.70;3.50;;;;;;;15.76;62.85;102362.38;106379;1278;22781;-50
2023/05/04 02:50:46;;;;;;;5.10;4.00;;;;;;;15.75;62.96;102358.37;106180;1278;25425;-50
2023/05/04 02:53:13;;;;;;;4.80;3.70;;;;;;;15.74;63.15;102356.13;106076;1280;25396;-51
2023/05/04 02:55:41;;;;;;;4.90;3.40;;;;;;;15.73;63.29;102352.31;106403;1275;24534;-50
2023/05/04 02:58:08;;;;;;;4.30;3.40;;;;;;;15.68;63.36;102354.83;106674;1278;25353;-50
2023/05/04 03:00:36;;;;;;;3.80;3.40;;;;;;;15.66;63.61;102359.95;106479;1275;23878;-50
2023/05/04 03:03:03;;;;;;;3.90;3.10;;;;;;;15.65;63.68;102363.82;106519;1275;25350;-49
2023/05/04 03:05:32;;;;;;;6.30;4.00;;;;;;;15.70;63.54;102368.27;106404;1274;25334;-51
2023/05/04 03:07:59;;;;;;;5.00;3.50;;;;;;;15.72;63.66;102372.25;106304;1275;25529;-52
2023/05/04 03:10:26;;;;;;;5.80;3.80;;;;;;;15.77;63.54;102376.20;106271;1275;25258;-52
2023/05/04 03:12:54;;;;;;;6.50;3.30;;;;;;;15.77;63.54;102377.95;106360;1281;22532;-51
2023/05/04 03:15:21;;;;;;;4.50;3.40;;;;;;;15.78;63.35;102379.69;106208;1275;25533;-50
2023/05/04 03:17:48;;;;;;;4.50;3.40;;;;;;;15.79;63.49;102382.99;106593;1282;25345;-50
2023/05/04 03:20:15;;;;;;;5.40;3.50;;;;;;;15.81;63.45;102378.23;106444;1282;25423;-50
2023/05/04 03:22:43;;;;;;;4.00;3.50;;;;;;;15.83;63.45;102370.48;105995;1280;25398;-49
2023/05/04 03:25:10;;;;;;;3.90;3.00;;;;;;;15.85;63.43;102369.41;106451;1279;25424;-49
2023/05/04 03:27:37;;;;;;;4.60;3.50;;;;;;;15.87;63.52;102367.61;106559;1274;25334;-50
2023/05/04 03:30:05;;;;;;;4.30;3.30;;;;;;;15.92;63.52;102364.38;106418;1274;25390;-49
2023/05/04 03:32:33;;;;;;;3.90;3.10;;;;;;;15.99;63.38;102368.80;106291;1282;25394;-49
2023/05/04 03:38:21;;;;;;;4.10;3.10;;;;;;;16.22;63.29;102373.08;103725;1298;545447;-50
2023/05/04 03:40:48;;;;;;;2.50;2.30;;;;;;;16.41;63.06;102378.48;106064;1281;25215;-50
2023/05/04 03:43:16;;;;;;;2.50;2.30;;;;;;;16.58;62.35;102376.05;105885;1281;24289;-50
2023/05/04 03:45:43;;;;;;;3.50;2.60;;;;;;;16.72;61.50;102378.39;105868;1284;22635;-50
2023/05/04 03:48:10;;;;;;;2.90;2.20;;;;;;;16.83;60.77;102378.32;105819;1286;25241;-51
2023/05/04 03:50:37;;;;;;;3.70;2.40;;;;;;;16.89;60.01;102383.44;106005;1284;22535;-50
2023/05/04 03:53:04;;;;;;;2.40;2.10;;;;;;;16.90;59.26;102383.75;106023;1281;206231;-49
2023/05/04 03:55:31;;;;;;;4.90;2.10;;;;;;;16.90;59.00;102388.48;106340;1281;22540;-50
2023/05/04 03:57:58;;;;;;;2.90;2.30;;;;;;;16.93;58.73;102390.72;106316;1281;24318;-50
2023/05/04 04:00:26;;;;;;;2.70;1.90;;;;;;;16.97;58.52;102394.67;106401;1278;24285;-50
2023/05/04 04:02:57;;;;;;;5.60;2.50;;;;;;;17.02;58.29;102398.92;106140;1279;24426;-50
2023/05/04 04:05:24;;;;;;;2.60;2.40;;;;;;;17.06;58.17;102399.90;106848;1269;22527;-50
2023/05/04 04:07:52;;;;;;;2.90;2.10;;;;;;;17.07;58.38;102396.54;106914;1271;24269;-50
2023/05/04 04:10:19;;;;;;;3.20;2.40;;;;;;;17.07;58.61;102391.98;106981;1269;25403;-49
2023/05/04 04:12:46;;;;;;;3.20;2.50;;;;;;;17.09;58.87;102395.97;106947;1272;22718;-50
2023/05/04 04:15:13;;;;;;;3.10;2.20;;;;;;;17.11;59.09;102396.96;107019;1266;25038;-50
2023/05/04 04:17:40;;;;;;;3.10;2.30;;;;;;;17.19;59.02;102397.32;107013;1257;22650;-50
2023/05/04 04:20:08;;;;;;;2.80;2.20;;;;;;;17.23;58.95;102397.74;107074;1271;22756;-50
2023/05/04 04:22:35;;;;;;;4.40;2.40;;;;;;;17.24;59.03;102393.34;106953;1269;24211;-50
2023/05/04 04:25:03;;;;;;;2.80;2.50;;;;;;;17.23;59.17;102392.85;107027;1266;24266;-49
2023/05/04 04:27:31;;;;;;;6.80;2.60;;;;;;;17.25;58.93;102396.99;107095;1266;22545;-50
2023/05/04 04:29:58;;;;;;;3.40;2.20;;;;;;;17.25;58.99;102400.68;106461;1266;22508;-50
2023/05/04 04:32:25;;;;;;;2.50;2.20;;;;;;;17.26;59.19;102401.19;106250;1269;1015733;-50
2023/05/04 04:34:52;;;;;;;4.70;2.50;;;;;;;17.24;59.24;102397.71;107148;1268;22503;-50
2023/05/04 04:37:19;;;;;;;4.10;2.70;;;;;;;17.20;59.29;102393.27;107009;1271;22623;-49
2023/05/04 04:39:46;;;;;;;2.80;2.50;;;;;;;17.16;59.52;102396.34;107127;1268;24224;-49
2023/05/04 04:42:13;;;;;;;2.50;2.10;;;;;;;17.14;59.69;102397.61;107027;1266;25509;-50
2023/05/04 04:44:40;;;;;;;3.70;2.50;;;;;;;17.08;59.72;102399.50;106719;1268;22764;-49
2023/05/04 04:47:08;;;;;;;2.80;2.50;;;;;;;17.07;59.91;102395.66;107001;1272;24455;-50
2023/05/04 04:49:35;;;;;;;2.60;2.40;;;;;;;17.07;60.05;102396.88;107158;1268;25446;-49
2023/05/04 04:52:02;;;;;;;4.60;2.80;;;;;;;17.10;60.17;102396.11;106908;1269;24201;-50
2023/05/04 04:54:30;;;;;;;3.20;2.10;;;;;;;17.08;60.30;102399.34;107005;1269;24731;-49
2023/05/04 04:56:58;;;;;;;3.00;2.50;;;;;;;17.08;60.61;102399.84;106716;1275;24261;-49
2023/05/04 04:59:25;;;;;;;3.80;2.30;;;;;;;17.14;60.45;102398.48;106609;1273;22521;-48
2023/05/04 05:01:52;;;;;;;3.20;2.50;;;;;;;17.25;60.29;102392.27;106808;1269;24395;-49
2023/05/04 05:04:21;;;;;;;4.20;2.60;;;;;;;17.34;60.13;102392.55;107015;1269;24203;-49
2023/05/04 05:06:48;;;;;;;3.80;2.70;;;;;;;17.37;60.19;102392.14;107020;1268;22754;-49
2023/05/04 05:09:15;;;;;;;2.10;1.90;;;;;;;17.44;60.24;102393.73;106975;1267;24394;-49
2023/05/04 05:11:42;;;;;;;3.50;1.90;;;;;;;17.50;60.18;102393.61;106770;1274;24320;-50
2023/05/04 05:14:09;;;;;;;1.70;1.50;;;;;;;17.57;59.75;102396.06;106986;1268;24182;-49
2023/05/04 05:16:37;;;;;;;2.50;1.60;;;;;;;17.64;59.03;102392.56;106259;1269;1003788;-49
2023/05/04 05:19:04;;;;;;;3.10;1.60;;;;;;;17.66;58.34;102392.67;106971;1269;22518;-49
2023/05/04 05:21:31;;;;;;;3.50;1.70;;;;;;;17.72;57.93;102390.93;106927;1269;22520;-48
2023/05/04 05:23:58;;;;;;;3.10;1.50;;;;;;;17.80;57.14;102385.48;106974;1269;24208;-49
2023/05/04 05:26:25;;;;;;;2.30;1.80;;;;;;;17.92;56.27;102385.86;106924;1268;24256;-49
2023/05/04 05:28:52;;;;;;;2.00;1.80;;;;;;;18.05;55.98;102380.63;106980;1269;24266;-49
2023/05/04 05:31:20;;;;;;;3.20;2.00;;;;;;;18.26;55.82;102374.56;107065;1269;24391;-49
2023/05/04 05:33:47;;;;;;;2.00;1.80;;;;;;;18.60;55.44;102371.86;107017;1269;22780;-49
2023/05/04 05:36:14;;;;;;;2.10;1.90;;;;;;;18.99;54.17;102369.08;106841;1269;22516;-49
2023/05/04 05:38:42;;;;;;;4.00;2.30;;;;;;;19.35;53.08;102372.52;106892;1275;22628;-49
2023/05/04 05:41:09;;;;;;;2.10;1.90;;;;;;;19.60;51.90;102377.69;106828;1262;24361;-49
2023/05/04 05:43:37;;;;;;;2.90;2.20;;;;;;;19.75;50.76;102381.59;107038;1269;22633;-49
2023/05/04 05:46:05;;;;;;;2.10;1.80;;;;;;;19.76;50.19;102380.14;106831;1268;24202;-49
2023/05/04 05:48:32;;;;;;;2.60;2.00;;;;;;;19.78;49.81;102379.01;107076;1267;22520;-49
2023/05/04 05:50:59;;;;;;;1.90;1.70;;;;;;;19.85;49.62;102379.29;106953;1272;22507;-49
2023/05/04 05:53:26;;;;;;;2.60;1.80;;;;;;;20.00;48.45;102385.10;106940;1269;24328;-49
2023/05/04 05:55:54;;;;;;;2.40;1.80;;;;;;;20.17;47.97;102386.08;106987;1268;24259;-49
2023/05/04 05:58:21;;;;;;;2.70;1.70;;;;;;;20.32;47.42;102386.96;107023;1271;24269;-49
2023/05/04 06:00:48;;;;;;;1.60;1.50;;;;;;;20.38;46.77;102387.11;106978;1272;24379;-49
2023/05/04 06:03:15;;;;;;;2.60;1.40;;;;;;;20.33;46.48;102390.11;106971;1271;24266;-49
2023/05/04 06:05:42;;;;;;;1.70;1.60;;;;;;;20.23;46.67;102398.38;106992;1268;22566;-48
2023/05/04 06:08:09;;;;;;;4.30;1.60;;;;;;;20.12;46.83;102402.28;106742;1270;22631;-49
2023/05/04 06:10:37;;;;;;;2.10;1.50;;;;;;;19.97;47.17;102397.20;106938;1268;24398;-48
2023/05/04 06:13:04;;;;;;;1.60;1.30;;;;;;;19.81;47.66;102391.93;106854;1272;25616;-48
2023/05/04 06:15:31;;;;;;;6.20;1.80;;;;;;;19.71;48.09;102388.77;107034;1268;22527;-48
2023/05/04 06:17:58;;;;;;;1.70;1.50;;;;;;;19.65;48.36;102382.45;106936;1269;22518;-48
2023/05/04 06:20:26;;;;;;;1.80;1.50;;;;;;;19.69;48.30;102381.77;106915;1267;22790;-49
2023/05/04 06:22:53;;;;;;;2.60;1.60;;;;;;;19.75;48.52;102385.27;106788;1253;24210;-49
2023/05/04 06:25:20;;;;;;;1.70;1.10;;;;;;;19.84;48.39;102384.94;107050;1267;24365;-49
2023/05/04 06:27:48;;;;;;;2.00;1.70;;;;;;;19.94;47.79;102377.37;107041;1269;24387;-49
2023/05/04 06:30:15;;;;;;;3.20;1.50;;;;;;;20.09;47.68;102381.79;110533;1274;22486;-49
2023/05/04 06:32:42;;;;;;;1.80;1.30;;;;;;;20.34;47.71;102382.30;110536;1275;22952;-49
2023/05/04 06:35:09;;;;;;;1.70;1.10;;;;;;;20.75;46.74;102383.40;110529;1272;23213;-47
2023/05/04 06:37:36;;;;;;;1.60;1.20;;;;;;;21.17;45.42;102380.89;110582;1269;22367;-47
2023/05/04 06:40:04;;;;;;;1.50;1.30;;;;;;;21.47;44.36;102377.02;110553;1269;22479;-49
2023/05/04 06:42:31;;;;;;;1.70;1.40;;;;;;;21.60;43.77;102385.09;110251;1274;22332;-46
2023/05/04 06:44:58;;;;;;;2.70;1.40;;;;;;;21.71;43.41;102384.61;110513;1274;23372;-47
2023/05/04 06:47:25;;;;;;;2.20;1.30;;;;;;;21.86;43.09;102385.98;110573;1274;22189;-49
2023/05/04 06:49:52;;;;;;;1.70;1.30;;;;;;;22.06;42.79;102386.34;110591;1274;22476;-49
2023/05/04 06:52:19;;;;;;;1.50;1.30;;;;;;;22.27;42.36;102389.65;110546;1275;22422;-49
2023/05/04 06:54:46;;;;;;;2.10;1.60;;;;;;;22.42;41.80;102395.64;110520;1269;22814;-48
2023/05/04 06:57:13;;;;;;;2.70;1.20;;;;;;;22.51;41.60;102401.95;110582;1274;22519;-47
2023/05/04 06:59:40;;;;;;;2.30;1.40;;;;;;;22.62;41.57;102401.15;110478;1275;22723;-47
2023/05/04 07:02:07;;;;;;;2.60;1.40;;;;;;;22.81;41.11;102400.62;110275;1272;22124;-47
2023/05/04 07:04:34;;;;;;;3.30;1.40;;;;;;;23.08;40.66;102401.77;110533;1269;22931;-47
2023/05/04 07:07:02;;;;;;;3.30;1.50;;;;;;;23.27;40.25;102399.97;110528;1274;22379;-46
2023/05/04 07:09:29;;;;;;;5.20;1.60;;;;;;;23.50;40.11;102402.39;110539;1274;23087;-48
2023/05/04 07:11:56;;;;;;;2.30;1.30;;;;;;;23.74;39.48;102400.27;110556;1269;22471;-47
2023/05/04 07:14:23;;;;;;;2.20;1.40;;;;;;;23.93;39.27;102394.85;110574;1270;23043;-47
2023/05/04 07:16:50;;;;;;;2.70;1.30;;;;;;;23.98;38.61;102391.59;110516;1275;22317;-48
2023/05/04 07:19:17;;;;;;;2.60;1.20;;;;;;;23.95;38.53;102391.58;110493;1275;22231;-47
2023/05/04 07:21:44;;;;;;;1.70;1.20;;;;;;;23.92;38.61;102391.02;110543;1269;22143;-47
2023/05/04 07:24:11;;;;;;;2.80;1.50;;;;;;;23.93;38.32;102394.88;110506;1275;22381;-48
2023/05/04 07:26:38;;;;;;;1.80;1.20;;;;;;;23.85;38.67;102392.46;110510;1273;22314;-47
2023/05/04 07:29:05;;;;;;;5.90;1.50;;;;;;;23.79;38.81;102388.69;110509;1274;22399;-48
2023/05/04 07:31:33;;;;;;;2.50;1.40;;;;;;;23.72;38.69;102391.70;110516;1274;22099;-48
2023/05/04 07:34:00;;;;;;;2.60;1.60;;;;;;;23.63;39.16;102400.54;110529;1274;22229;-49
2023/05/04 07:36:28;;;;;;;2.50;1.20;;;;;;;23.57;39.00;102399.75;110557;1269;22415;-48
2023/05/04 07:38:55;;;;;;;3.20;1.10;;;;;;;23.43;38.60;102405.94;110513;1273;22580;-47
2023/05/04 07:41:22;;;;;;;1.70;1.30;;;;;;;23.18;39.16;102409.60;110521;1269;22394;-49
2023/05/04 07:43:49;;;;;;;3.20;1.50;;;;;;;22.97;39.62;102407.13;110543;1275;22100;-48
2023/05/04 07:46:16;;;;;;;2.30;1.40;;;;;;;22.79;40.32;102406.57;110522;1269;23067;-46
2023/05/04 07:48:43;;;;;;;2.90;1.40;;;;;;;22.66;40.65;102406.60;109743;1273;1002924;-49
2023/05/04 07:51:13;;;;;;;3.40;1.60;;;;;;;22.60;40.89;102407.94;110512;1273;22399;-49
2023/05/04 07:53:42;;;;;;;3.00;1.80;;;;;;;22.57;40.93;102411.77;110327;1274;22208;-49
2023/05/04 07:56:11;;;;;;;2.90;1.50;;;;;;;22.56;40.90;102417.67;110576;1269;22125;-49
2023/05/04 07:58:38;;;;;;;3.70;1.70;;;;;;;22.54;40.83;102416.52;110534;1269;22397;-49
2023/05/04 08:01:05;;;;;;;4.40;1.50;;;;;;;22.49;40.91;102421.85;110253;1274;22440;-50
2023/05/04 08:03:32;;;;;;;4.10;1.80;;;;;;;22.44;41.12;102422.79;110127;1274;22760;-49
2023/05/04 08:05:59;;;;;;;2.20;1.40;;;;;;;22.40;41.28;102422.10;110538;1270;23045;-47
2023/05/04 08:08:26;;;;;;;2.30;1.30;;;;;;;22.36;41.47;102432.17;110486;1269;22179;-49
2023/05/04 08:10:53;;;;;;;2.00;1.20;;;;;;;22.29;41.46;102444.16;110253;1272;23016;-48
2023/05/04 08:13:27;;;;;;;5.70;1.70;;;;;;;22.22;41.63;102438.83;110504;1275;22161;-49
2023/05/04 08:15:59;;;;;;;2.60;1.20;;;;;;;22.16;41.98;102439.80;110522;1271;22180;-48
2023/05/04 08:18:27;;;;;;;2.30;1.60;;;;;;;22.10;42.27;102445.88;110524;1274;22370;-48
2023/05/04 08:20:54;;;;;;;2.00;1.50;;;;;;;22.10;42.50;102439.54;110528;1275;22380;-48
2023/05/04 08:23:21;;;;;;;2.80;1.30;;;;;;;22.03;42.43;102448.13;110512;1275;22855;-48
2023/05/04 08:25:48;;;;;;;3.10;1.30;;;;;;;21.98;42.43;102446.21;110509;1271;22311;-48
2023/05/04 08:28:15;;;;;;;2.70;1.50;;;;;;;21.97;42.31;102446.46;110536;1275;22436;-46
2023/05/04 08:30:42;;;;;;;2.80;1.60;;;;;;;21.84;42.42;102448.07;110531;1275;22283;-48
2023/05/04 08:33:09;;;;;;;3.70;1.90;;;;;;;21.68;42.83;102445.54;110509;1275;22274;-48
2023/05/04 08:35:36;;;;;;;1.80;1.40;;;;;;;21.57;43.03;102448.13;110518;1275;23188;-48
2023/05/04 08:38:03;;;;;;;3.50;1.70;;;;;;;21.50;43.28;102444.17;110472;1275;22353;-48
2023/05/04 08:40:31;;;;;;;3.20;1.90;;;;;;;21.43;43.93;102443.92;110196;1272;22304;-48
2023/05/04 08:42:58;;;;;;;2.50;1.60;;;;;;;21.45;43.84;102447.73;110371;1272;22836;-48
2023/05/04 08:45:25;;;;;;;2.20;1.90;;;;;;;21.48;43.63;102450.05;110497;1267;22455;-48
2023/05/04 08:47:53;;;;;;;4.00;1.90;;;;;;;21.47;43.56;102445.52;110509;1267;22103;-48
2023/05/04 08:50:20;;;;;;;3.30;1.60;;;;;;;21.40;43.62;102439.10;110521;1274;22440;-48
2023/05/04 08:52:47;;;;;;;3.70;1.90;;;;;;;21.34;43.59;102435.27;110564;1271;22841;-48
2023/05/04 08:55:15;;;;;;;1.90;1.70;;;;;;;21.29;43.77;102434.27;110428;1273;23107;-48
2023/05/04 08:57:43;;;;;;;3.00;1.70;;;;;;;21.27;44.36;102426.92;110508;1272;22389;-48
2023/05/04 09:00:11;;;;;;;1.80;1.70;;;;;;;21.29;44.41;102426.33;110486;1269;22281;-48
2023/05/04 09:02:38;;;;;;;2.10;1.70;;;;;;;21.33;44.19;102433.73;110498;1271;22388;-48
2023/05/04 09:05:06;;;;;;;2.00;1.80;;;;;;;21.35;43.97;102441.40;110509;1272;22193;-48
2023/05/04 09:07:34;;;;;;;2.70;1.80;;;;;;;21.36;43.60;102444.02;110512;1273;22128;-48
2023/05/04 09:10:02;;;;;;;2.60;1.80;;;;;;;21.33;43.77;102442.89;110494;1271;22135;-48
2023/05/04 09:12:30;;;;;;;3.60;1.70;;;;;;;21.28;43.85;102442.95;110530;1275;22262;-48
2023/05/04 09:15:00;;;;;;;3.20;2.20;;;;;;;21.18;44.06;102437.87;110521;1274;22253;-48
2023/05/04 09:17:28;;;;;;;2.40;2.00;;;;;;;21.12;44.40;102435.80;110522;1271;22340;-49
2023/05/04 09:20:02;;;;;;;5.10;2.00;;;;;;;21.06;44.55;102431.07;110224;1275;22685;-48
2023/05/04 09:22:29;;;;;;;4.20;1.70;;;;;;;21.02;44.69;102429.80;110206;1274;22236;-48
2023/05/04 09:25:07;;;;;;;2.50;2.00;;;;;;;20.99;44.60;102428.52;110495;1273;22970;-48
2023/05/04 09:27:34;;;;;;;2.70;2.00;;;;;;;20.93;44.96;102429.42;110483;1274;22882;-48
2023/05/04 09:30:01;;;;;;;2.50;2.00;;;;;;;20.91;45.21;102428.27;110535;1274;22250;-48
2023/05/04 09:32:28;;;;;;;2.50;1.90;;;;;;;20.90;45.31;102428.14;110562;1275;22317;-48
2023/05/04 09:34:55;;;;;;;2.90;1.70;;;;;;;20.91;45.46;102424.59;110320;1275;23010;-48
2023/05/04 09:37:22;;;;;;;3.10;1.90;;;;;;;20.86;45.78;102421.24;110552;1274;23065;-47
2023/05/04 09:39:52;;;;;;;3.70;2.20;;;;;;;20.83;46.04;102421.37;110266;1274;22930;-47
2023/05/04 09:42:20;;;;;;;2.60;1.90;;;;;;;20.80;46.20;102421.13;110518;1273;22150;-48
2023/05/04 09:45:07;;;;;;;4.70;2.00;;;;;;;20.80;46.34;102419.17;110518;1267;23042;-48
2023/05/04 09:47:39;;;;;;;2.40;1.50;;;;;;;20.82;46.19;102411.52;110481;1274;22248;-48
2023/05/04 09:50:16;;;;;;;3.60;2.00;;;;;;;20.82;46.10;102406.77;110500;1274;22411;-48
2023/05/04 09:52:47;;;;;;;2.40;1.80;;;;;;;20.83;46.18;102400.20;110291;1272;22182;-49
2023/05/04 09:55:15;;;;;;;3.10;1.70;;;;;;;20.84;46.30;102400.88;110525;1269;22134;-48
2023/05/04 09:57:44;;;;;;;4.20;2.10;;;;;;;20.85;46.48;102403.63;110596;1269;23214;-48
2023/05/04 10:00:12;;;;;;;2.60;2.00;;;;;;;20.87;46.59;102402.31;110295;1275;22166;-48
2023/05/04 10:02:39;;;;;;;3.00;2.10;;;;;;;20.90;46.71;102397.98;110072;1275;22269;-47
2023/05/04 10:05:08;;;;;;;3.50;2.20;;;;;;;20.93;46.62;102400.00;110441;1267;22321;-48
2023/05/04 10:07:35;;;;;;;3.50;1.80;;;;;;;20.94;46.54;102398.34;110281;1271;22129;-47
2023/05/04 10:10:03;;;;;;;2.20;1.60;;;;;;;20.95;46.19;102400.77;110499;1274;22123;-48
2023/05/04 10:12:30;;;;;;;3.00;2.10;;;;;;;20.98;45.74;102402.43;110122;1273;22183;-48
2023/05/04 10:14:57;;;;;;;2.00;1.80;;;;;;;21.03;45.90;102399.95;110551;1267;23072;-48
2023/05/04 10:17:27;;;;;;;2.50;1.80;;;;;;;21.07;46.09;102393.65;110513;1268;22452;-47
2023/05/04 10:20:26;;;;;;;3.70;2.00;;;;;;;21.12;45.98;102391.67;110162;1273;22486;-47
2023/05/04 10:23:15;;;;;;;3.50;1.40;;;;;;;21.17;45.60;102388.14;110460;1269;22927;-48
2023/05/04 10:25:57;;;;;;;2.00;1.80;;;;;;;21.09;45.74;102386.33;110442;1267;22318;-48
2023/05/04 10:28:44;;;;;;;3.50;2.10;;;;;;;21.06;45.62;102385.20;110300;1275;22296;-48
2023/05/04 10:31:11;;;;;;;2.40;1.80;;;;;;;21.14;45.43;102384.20;110493;1270;22276;-47
2023/05/04 10:33:41;;;;;;;2.40;1.70;;;;;;;21.14;45.50;102382.98;110530;1274;22110;-48
2023/05/04 10:36:09;;;;;;;1.90;1.60;;;;;;;21.13;45.51;102380.73;110516;1271;23220;-47
2023/05/04 10:38:37;;;;;;;3.50;1.70;;;;;;;21.14;45.42;102370.79;110472;1270;22307;-47
2023/05/04 10:41:15;;;;;;;2.50;1.80;;;;;;;21.16;45.76;102370.20;110515;1273;22283;-48
2023/05/04 10:43:47;;;;;;;1.80;1.50;;;;;;;21.19;45.31;102369.89;110484;1274;22220;-48
2023/05/04 10:46:18;;;;;;;2.10;1.60;;;;;;;21.19;45.24;102372.35;110424;1270;23033;-47
2023/05/04 10:48:45;;;;;;;2.80;2.00;;;;;;;21.21;44.91;102372.64;110499;1270;22194;-48
2023/05/04 10:51:18;;;;;;;2.30;1.60;;;;;;;21.19;44.92;102374.11;110520;1268;22782;-48
2023/05/04 10:53:46;;;;;;;3.50;1.70;;;;;;;21.19;45.20;102378.17;110489;1274;23041;-48
2023/05/04 10:56:23;;;;;;;2.30;1.90;;;;;;;21.22;44.58;102372.22;110350;1273;22457;-48
2023/05/04 10:58:50;;;;;;;1.70;1.50;;;;;;;21.24;44.61;102365.45;110497;1269;22216;-47
2023/05/04 11:01:17;;;;;;;1.70;1.30;;;;;;;21.27;44.57;102367.24;110484;1275;23014;-47
2023/05/04 11:03:45;;;;;;;3.70;1.80;;;;;;;21.29;44.37;102360.27;110475;1270;22181;-48
2023/05/04 11:06:20;;;;;;;4.90;1.60;;;;;;;21.32;44.37;102353.45;110459;1270;22773;-47
2023/05/04 11:08:58;;;;;;;3.60;2.00;;;;;;;21.33;44.10;102347.58;110517;1275;22732;-48
2023/05/04 11:11:25;;;;;;;3.50;1.30;;;;;;;21.34;43.78;102349.48;110481;1272;22255;-47
2023/05/04 11:13:52;;;;;;;1.90;1.60;;;;;;;21.34;43.92;102352.30;110453;1275;22104;-47
2023/05/04 11:16:26;;;;;;;2.20;1.80;;;;;;;21.35;43.78;102356.34;110520;1269;22441;-47
2023/05/04 11:18:53;;;;;;;1.40;1.30;;;;;;;21.33;43.93;102350.58;110067;1274;22277;-48
2023/05/04 11:21:26;;;;;;;1.60;1.20;;;;;;;21.34;43.44;102345.45;110481;1269;22276;-48
2023/05/04 11:23:57;;;;;;;3.00;1.70;;;;;;;21.34;42.82;102335.70;110387;1269;22338;-47